sensor_id;sensor_type;location;lat;lon;timestamp;P1;durP1;ratioP1;P2;durP2;ratioP2
69260;SDS011;56378;52.404;20.816;2023-03-02T00:01:03;160.20;;;52.10;;
69260;SDS011;56378;52.404;20.816;2023-03-02T00:03:35;156.32;;;48.10;;
69260;SDS011;56378;52.404;20.816;2023-03-02T00:06:04;154.18;;;50.10;;
69260;SDS011;56378;52.404;20.816;2023-03-02T00:08:31;164.20;;;53.47;;
69260;SDS011;56378;52.404;20.816;2023-03-02T00:10:58;153.30;;;48.03;;
69260;SDS011;56378;52.404;20.816;2023-03-02T00:13:25;153.98;;;48.22;;
69260;SDS011;56378;52.404;20.816;2023-03-02T00:15:54;141.63;;;45.13;;
69260;SDS011;56378;52.404;20.816;2023-03-02T00:18:19;150.73;;;45.10;;
69260;SDS011;56378;52.404;20.816;2023-03-02T00:20:45;159.40;;;46.80;;
69260;SDS011;56378;52.404;20.816;2023-03-02T00:23:11;176.40;;;48.77;;
69260;SDS011;56378;52.404;20.816;2023-03-02T00:25:37;153.40;;;45.40;;
69260;SDS011;56378;52.404;20.816;2023-03-02T00:28:04;144.77;;;45.58;;
69260;SDS011;56378;52.404;20.816;2023-03-02T00:30:30;141.17;;;44.00;;
69260;SDS011;56378;52.404;20.816;2023-03-02T00:32:55;132.93;;;42.80;;
69260;SDS011;56378;52.404;20.816;2023-03-02T00:35:22;140.45;;;43.53;;
69260;SDS011;56378;52.404;20.816;2023-03-02T00:37:51;150.73;;;46.90;;
69260;SDS011;56378;52.404;20.816;2023-03-02T00:40:17;160.70;;;47.80;;
69260;SDS011;56378;52.404;20.816;2023-03-02T00:42:42;169.80;;;49.40;;
69260;SDS011;56378;52.404;20.816;2023-03-02T00:45:08;162.80;;;48.30;;
69260;SDS011;56378;52.404;20.816;2023-03-02T00:47:35;159.02;;;45.25;;
69260;SDS011;56378;52.404;20.816;2023-03-02T00:50:01;152.45;;;46.28;;
69260;SDS011;56378;52.404;20.816;2023-03-02T00:52:28;159.43;;;45.95;;
69260;SDS011;56378;52.404;20.816;2023-03-02T00:54:54;161.50;;;46.78;;
69260;SDS011;56378;52.404;20.816;2023-03-02T00:57:20;196.37;;;53.13;;
69260;SDS011;56378;52.404;20.816;2023-03-02T00:59:46;179.68;;;52.55;;
69260;SDS011;56378;52.404;20.816;2023-03-02T01:02:12;182.33;;;51.67;;
69260;SDS011;56378;52.404;20.816;2023-03-02T01:04:38;172.97;;;50.60;;
69260;SDS011;56378;52.404;20.816;2023-03-02T01:07:07;168.90;;;50.15;;
69260;SDS011;56378;52.404;20.816;2023-03-02T01:09:37;160.30;;;48.38;;
69260;SDS011;56378;52.404;20.816;2023-03-02T01:12:04;151.98;;;47.60;;
69260;SDS011;56378;52.404;20.816;2023-03-02T01:14:34;162.23;;;48.45;;
69260;SDS011;56378;52.404;20.816;2023-03-02T01:17:00;163.40;;;48.67;;
69260;SDS011;56378;52.404;20.816;2023-03-02T01:19:28;169.23;;;48.97;;
69260;SDS011;56378;52.404;20.816;2023-03-02T01:21:54;156.27;;;48.65;;
69260;SDS011;56378;52.404;20.816;2023-03-02T01:24:19;152.40;;;45.70;;
69260;SDS011;56378;52.404;20.816;2023-03-02T01:26:45;134.50;;;41.13;;
69260;SDS011;56378;52.404;20.816;2023-03-02T01:29:11;140.27;;;44.60;;
69260;SDS011;56378;52.404;20.816;2023-03-02T01:31:38;137.40;;;43.58;;
69260;SDS011;56378;52.404;20.816;2023-03-02T01:34:04;140.85;;;44.45;;
69260;SDS011;56378;52.404;20.816;2023-03-02T01:36:30;133.18;;;41.20;;
69260;SDS011;56378;52.404;20.816;2023-03-02T01:38:56;129.10;;;41.25;;
69260;SDS011;56378;52.404;20.816;2023-03-02T01:41:22;126.60;;;39.57;;
69260;SDS011;56378;52.404;20.816;2023-03-02T01:43:48;120.90;;;36.58;;
69260;SDS011;56378;52.404;20.816;2023-03-02T01:51:14;105.80;;;33.93;;
69260;SDS011;56378;52.404;20.816;2023-03-02T01:53:43;128.25;;;41.75;;
69260;SDS011;56378;52.404;20.816;2023-03-02T01:56:16;133.40;;;43.00;;
69260;SDS011;56378;52.404;20.816;2023-03-02T01:58:47;143.35;;;43.28;;
69260;SDS011;56378;52.404;20.816;2023-03-02T02:01:18;121.32;;;39.97;;
69260;SDS011;56378;52.404;20.816;2023-03-02T02:03:45;113.63;;;38.67;;
69260;SDS011;56378;52.404;20.816;2023-03-02T02:08:42;121.32;;;41.17;;
69260;SDS011;56378;52.404;20.816;2023-03-02T02:11:12;126.57;;;39.88;;
69260;SDS011;56378;52.404;20.816;2023-03-02T02:13:38;123.57;;;39.83;;
69260;SDS011;56378;52.404;20.816;2023-03-02T02:16:04;138.40;;;43.13;;
69260;SDS011;56378;52.404;20.816;2023-03-02T02:18:31;134.70;;;43.33;;
69260;SDS011;56378;52.404;20.816;2023-03-02T02:20:58;124.90;;;42.05;;
69260;SDS011;56378;52.404;20.816;2023-03-02T02:25:56;135.77;;;43.08;;
69260;SDS011;56378;52.404;20.816;2023-03-02T02:34:43;125.55;;;39.95;;
69260;SDS011;56378;52.404;20.816;2023-03-02T02:36:53;134.10;;;40.75;;
69260;SDS011;56378;52.404;20.816;2023-03-02T02:39:24;121.10;;;40.28;;
69260;SDS011;56378;52.404;20.816;2023-03-02T02:41:53;124.15;;;41.67;;
69260;SDS011;56378;52.404;20.816;2023-03-02T02:44:22;124.97;;;40.83;;
69260;SDS011;56378;52.404;20.816;2023-03-02T02:46:48;116.38;;;39.88;;
69260;SDS011;56378;52.404;20.816;2023-03-02T02:49:22;113.25;;;38.85;;
69260;SDS011;56378;52.404;20.816;2023-03-02T02:51:54;115.07;;;38.47;;
69260;SDS011;56378;52.404;20.816;2023-03-02T02:54:20;109.07;;;38.53;;
69260;SDS011;56378;52.404;20.816;2023-03-02T02:56:47;108.03;;;38.17;;
69260;SDS011;56378;52.404;20.816;2023-03-02T02:59:20;117.20;;;38.83;;
69260;SDS011;56378;52.404;20.816;2023-03-02T03:01:53;120.40;;;39.57;;
69260;SDS011;56378;52.404;20.816;2023-03-02T03:04:22;118.25;;;39.80;;
69260;SDS011;56378;52.404;20.816;2023-03-02T03:06:54;125.50;;;40.45;;
69260;SDS011;56378;52.404;20.816;2023-03-02T03:09:29;128.80;;;40.55;;
69260;SDS011;56378;52.404;20.816;2023-03-02T03:12:18;116.22;;;39.33;;
69260;SDS011;56378;52.404;20.816;2023-03-02T03:14:43;121.63;;;39.30;;
69260;SDS011;56378;52.404;20.816;2023-03-02T03:17:09;113.43;;;38.20;;
69260;SDS011;56378;52.404;20.816;2023-03-02T03:19:39;120.10;;;39.17;;
69260;SDS011;56378;52.404;20.816;2023-03-02T03:22:06;113.90;;;37.63;;
69260;SDS011;56378;52.404;20.816;2023-03-02T03:24:36;106.88;;;36.92;;
69260;SDS011;56378;52.404;20.816;2023-03-02T03:27:02;107.27;;;36.33;;
69260;SDS011;56378;52.404;20.816;2023-03-02T03:29:30;102.20;;;34.70;;
69260;SDS011;56378;52.404;20.816;2023-03-02T03:31:57;99.35;;;35.17;;
69260;SDS011;56378;52.404;20.816;2023-03-02T03:34:24;103.70;;;34.25;;
69260;SDS011;56378;52.404;20.816;2023-03-02T03:36:50;94.65;;;31.67;;
69260;SDS011;56378;52.404;20.816;2023-03-02T03:39:17;98.27;;;32.97;;
69260;SDS011;56378;52.404;20.816;2023-03-02T03:41:43;95.03;;;31.95;;
69260;SDS011;56378;52.404;20.816;2023-03-02T03:44:09;89.85;;;31.35;;
69260;SDS011;56378;52.404;20.816;2023-03-02T03:46:35;88.88;;;31.52;;
69260;SDS011;56378;52.404;20.816;2023-03-02T03:49:01;88.35;;;31.60;;
69260;SDS011;56378;52.404;20.816;2023-03-02T03:51:27;86.20;;;30.67;;
69260;SDS011;56378;52.404;20.816;2023-03-02T03:53:59;85.80;;;30.17;;
69260;SDS011;56378;52.404;20.816;2023-03-02T03:56:26;79.93;;;30.42;;
69260;SDS011;56378;52.404;20.816;2023-03-02T03:58:58;85.22;;;29.63;;
69260;SDS011;56378;52.404;20.816;2023-03-02T04:01:52;77.90;;;29.70;;
69260;SDS011;56378;52.404;20.816;2023-03-02T04:04:19;81.30;;;29.23;;
69260;SDS011;56378;52.404;20.816;2023-03-02T04:06:47;80.90;;;29.40;;
69260;SDS011;56378;52.404;20.816;2023-03-02T04:09:13;93.80;;;33.15;;
69260;SDS011;56378;52.404;20.816;2023-03-02T04:11:40;86.27;;;32.80;;
69260;SDS011;56378;52.404;20.816;2023-03-02T04:14:07;89.10;;;31.35;;
69260;SDS011;56378;52.404;20.816;2023-03-02T04:16:34;100.10;;;33.13;;
69260;SDS011;56378;52.404;20.816;2023-03-02T04:19:01;88.20;;;34.33;;
69260;SDS011;56378;52.404;20.816;2023-03-02T04:21:27;91.50;;;34.20;;
69260;SDS011;56378;52.404;20.816;2023-03-02T04:23:53;92.17;;;34.47;;
69260;SDS011;56378;52.404;20.816;2023-03-02T04:26:19;95.63;;;35.65;;
69260;SDS011;56378;52.404;20.816;2023-03-02T04:28:45;101.10;;;36.30;;
69260;SDS011;56378;52.404;20.816;2023-03-02T04:31:14;98.22;;;36.45;;
69260;SDS011;56378;52.404;20.816;2023-03-02T04:33:40;101.18;;;35.03;;
69260;SDS011;56378;52.404;20.816;2023-03-02T04:36:06;94.70;;;32.57;;
69260;SDS011;56378;52.404;20.816;2023-03-02T04:38:32;89.20;;;32.10;;
69260;SDS011;56378;52.404;20.816;2023-03-02T04:40:58;79.20;;;30.35;;
69260;SDS011;56378;52.404;20.816;2023-03-02T04:43:23;81.27;;;31.30;;
69260;SDS011;56378;52.404;20.816;2023-03-02T04:45:53;84.90;;;31.15;;
69260;SDS011;56378;52.404;20.816;2023-03-02T04:48:20;113.20;;;37.30;;
69260;SDS011;56378;52.404;20.816;2023-03-02T04:50:46;121.23;;;41.27;;
69260;SDS011;56378;52.404;20.816;2023-03-02T04:53:12;86.22;;;30.73;;
69260;SDS011;56378;52.404;20.816;2023-03-02T04:55:39;76.78;;;30.75;;
69260;SDS011;56378;52.404;20.816;2023-03-02T04:58:05;79.95;;;28.83;;
69260;SDS011;56378;52.404;20.816;2023-03-02T05:00:32;88.30;;;32.27;;
69260;SDS011;56378;52.404;20.816;2023-03-02T05:02:59;80.78;;;31.15;;
69260;SDS011;56378;52.404;20.816;2023-03-02T05:05:26;79.38;;;30.23;;
69260;SDS011;56378;52.404;20.816;2023-03-02T05:07:53;90.85;;;32.70;;
69260;SDS011;56378;52.404;20.816;2023-03-02T05:10:19;93.57;;;33.30;;
69260;SDS011;56378;52.404;20.816;2023-03-02T05:12:48;94.67;;;33.27;;
69260;SDS011;56378;52.404;20.816;2023-03-02T05:15:26;82.90;;;31.42;;
69260;SDS011;56378;52.404;20.816;2023-03-02T05:17:55;87.20;;;32.25;;
69260;SDS011;56378;52.404;20.816;2023-03-02T05:20:21;91.40;;;34.08;;
69260;SDS011;56378;52.404;20.816;2023-03-02T05:22:52;87.15;;;31.80;;
69260;SDS011;56378;52.404;20.816;2023-03-02T05:25:19;82.73;;;29.47;;
69260;SDS011;56378;52.404;20.816;2023-03-02T05:27:45;81.05;;;30.20;;
69260;SDS011;56378;52.404;20.816;2023-03-02T05:30:11;77.85;;;30.20;;
69260;SDS011;56378;52.404;20.816;2023-03-02T05:32:38;77.53;;;30.23;;
69260;SDS011;56378;52.404;20.816;2023-03-02T05:35:03;78.90;;;29.43;;
69260;SDS011;56378;52.404;20.816;2023-03-02T05:37:29;77.13;;;29.23;;
69260;SDS011;56378;52.404;20.816;2023-03-02T05:39:55;81.03;;;29.08;;
69260;SDS011;56378;52.404;20.816;2023-03-02T05:42:21;71.45;;;27.38;;
69260;SDS011;56378;52.404;20.816;2023-03-02T05:44:47;75.15;;;28.95;;
69260;SDS011;56378;52.404;20.816;2023-03-02T05:47:13;76.03;;;29.33;;
69260;SDS011;56378;52.404;20.816;2023-03-02T05:49:38;85.25;;;31.30;;
69260;SDS011;56378;52.404;20.816;2023-03-02T05:52:04;87.50;;;33.90;;
69260;SDS011;56378;52.404;20.816;2023-03-02T05:54:30;88.43;;;32.55;;
69260;SDS011;56378;52.404;20.816;2023-03-02T05:56:56;85.88;;;33.17;;
69260;SDS011;56378;52.404;20.816;2023-03-02T05:59:22;86.50;;;33.42;;
69260;SDS011;56378;52.404;20.816;2023-03-02T06:01:48;85.57;;;32.42;;
69260;SDS011;56378;52.404;20.816;2023-03-02T06:04:14;84.40;;;32.70;;
69260;SDS011;56378;52.404;20.816;2023-03-02T06:06:40;80.27;;;30.90;;
69260;SDS011;56378;52.404;20.816;2023-03-02T06:09:06;85.18;;;31.33;;
69260;SDS011;56378;52.404;20.816;2023-03-02T06:11:32;79.97;;;30.83;;
69260;SDS011;56378;52.404;20.816;2023-03-02T06:13:57;81.82;;;30.88;;
69260;SDS011;56378;52.404;20.816;2023-03-02T06:16:23;75.00;;;30.77;;
69260;SDS011;56378;52.404;20.816;2023-03-02T06:18:49;82.43;;;31.83;;
69260;SDS011;56378;52.404;20.816;2023-03-02T06:21:14;81.83;;;32.13;;
69260;SDS011;56378;52.404;20.816;2023-03-02T06:23:40;86.30;;;32.65;;
69260;SDS011;56378;52.404;20.816;2023-03-02T06:26:09;86.23;;;33.37;;
69260;SDS011;56378;52.404;20.816;2023-03-02T06:28:36;94.80;;;35.15;;
69260;SDS011;56378;52.404;20.816;2023-03-02T06:31:02;94.95;;;35.55;;
69260;SDS011;56378;52.404;20.816;2023-03-02T06:33:28;93.30;;;35.27;;
69260;SDS011;56378;52.404;20.816;2023-03-02T06:35:54;104.30;;;37.08;;
69260;SDS011;56378;52.404;20.816;2023-03-02T06:38:20;101.15;;;36.50;;
69260;SDS011;56378;52.404;20.816;2023-03-02T06:40:46;109.22;;;37.28;;
69260;SDS011;56378;52.404;20.816;2023-03-02T06:43:12;103.80;;;37.13;;
69260;SDS011;56378;52.404;20.816;2023-03-02T06:45:38;98.32;;;36.22;;
69260;SDS011;56378;52.404;20.816;2023-03-02T06:48:04;101.07;;;35.03;;
69260;SDS011;56378;52.404;20.816;2023-03-02T06:50:30;88.60;;;36.15;;
69260;SDS011;56378;52.404;20.816;2023-03-02T06:52:56;87.63;;;34.33;;
69260;SDS011;56378;52.404;20.816;2023-03-02T06:55:22;90.72;;;35.00;;
69260;SDS011;56378;52.404;20.816;2023-03-02T06:57:48;85.65;;;35.53;;
69260;SDS011;56378;52.404;20.816;2023-03-02T07:00:14;91.57;;;35.47;;
69260;SDS011;56378;52.404;20.816;2023-03-02T07:02:48;86.28;;;35.72;;
69260;SDS011;56378;52.404;20.816;2023-03-02T07:05:15;113.75;;;39.80;;
69260;SDS011;56378;52.404;20.816;2023-03-02T07:07:41;106.40;;;40.58;;
69260;SDS011;56378;52.404;20.816;2023-03-02T07:10:07;103.28;;;38.38;;
69260;SDS011;56378;52.404;20.816;2023-03-02T07:12:34;92.38;;;36.25;;
69260;SDS011;56378;52.404;20.816;2023-03-02T07:15:00;92.47;;;34.83;;
69260;SDS011;56378;52.404;20.816;2023-03-02T07:17:26;93.53;;;35.33;;
69260;SDS011;56378;52.404;20.816;2023-03-02T07:19:52;91.80;;;34.00;;
69260;SDS011;56378;52.404;20.816;2023-03-02T07:22:18;105.13;;;38.25;;
69260;SDS011;56378;52.404;20.816;2023-03-02T07:24:44;112.65;;;40.45;;
69260;SDS011;56378;52.404;20.816;2023-03-02T07:27:10;106.03;;;38.43;;
69260;SDS011;56378;52.404;20.816;2023-03-02T07:29:36;105.47;;;39.50;;
69260;SDS011;56378;52.404;20.816;2023-03-02T07:32:01;107.70;;;38.05;;
69260;SDS011;56378;52.404;20.816;2023-03-02T07:34:27;101.63;;;38.33;;
69260;SDS011;56378;52.404;20.816;2023-03-02T07:36:53;91.63;;;33.58;;
69260;SDS011;56378;52.404;20.816;2023-03-02T07:39:19;73.97;;;30.17;;
69260;SDS011;56378;52.404;20.816;2023-03-02T07:41:45;70.68;;;29.00;;
69260;SDS011;56378;52.404;20.816;2023-03-02T07:44:11;75.03;;;29.30;;
69260;SDS011;56378;52.404;20.816;2023-03-02T07:46:37;73.40;;;29.07;;
69260;SDS011;56378;52.404;20.816;2023-03-02T07:49:02;71.43;;;27.30;;
69260;SDS011;56378;52.404;20.816;2023-03-02T07:51:28;74.70;;;27.52;;
69260;SDS011;56378;52.404;20.816;2023-03-02T07:53:54;68.20;;;26.47;;
69260;SDS011;56378;52.404;20.816;2023-03-02T07:56:20;66.45;;;24.83;;
69260;SDS011;56378;52.404;20.816;2023-03-02T07:58:46;68.67;;;25.43;;
69260;SDS011;56378;52.404;20.816;2023-03-02T08:01:11;68.45;;;26.00;;
69260;SDS011;56378;52.404;20.816;2023-03-02T08:03:37;76.57;;;27.10;;
69260;SDS011;56378;52.404;20.816;2023-03-02T08:06:04;68.60;;;27.23;;
69260;SDS011;56378;52.404;20.816;2023-03-02T08:08:35;71.22;;;28.45;;
69260;SDS011;56378;52.404;20.816;2023-03-02T08:11:05;67.20;;;26.10;;
69260;SDS011;56378;52.404;20.816;2023-03-02T08:13:32;79.17;;;29.13;;
69260;SDS011;56378;52.404;20.816;2023-03-02T08:15:58;80.85;;;29.33;;
69260;SDS011;56378;52.404;20.816;2023-03-02T08:18:25;84.88;;;30.20;;
69260;SDS011;56378;52.404;20.816;2023-03-02T08:20:51;86.00;;;29.63;;
69260;SDS011;56378;52.404;20.816;2023-03-02T08:23:18;96.90;;;30.83;;
69260;SDS011;56378;52.404;20.816;2023-03-02T08:25:44;85.18;;;31.55;;
69260;SDS011;56378;52.404;20.816;2023-03-02T08:28:10;67.97;;;26.13;;
69260;SDS011;56378;52.404;20.816;2023-03-02T08:30:36;64.17;;;25.30;;
69260;SDS011;56378;52.404;20.816;2023-03-02T08:33:02;62.05;;;25.70;;
69260;SDS011;56378;52.404;20.816;2023-03-02T08:35:28;70.50;;;26.88;;
69260;SDS011;56378;52.404;20.816;2023-03-02T08:37:54;64.65;;;25.67;;
69260;SDS011;56378;52.404;20.816;2023-03-02T08:40:20;63.10;;;24.63;;
69260;SDS011;56378;52.404;20.816;2023-03-02T08:42:45;61.58;;;23.27;;
69260;SDS011;56378;52.404;20.816;2023-03-02T08:45:12;57.50;;;23.55;;
69260;SDS011;56378;52.404;20.816;2023-03-02T08:47:37;55.40;;;21.60;;
69260;SDS011;56378;52.404;20.816;2023-03-02T08:50:04;52.33;;;21.48;;
69260;SDS011;56378;52.404;20.816;2023-03-02T08:52:32;52.72;;;20.90;;
69260;SDS011;56378;52.404;20.816;2023-03-02T08:54:59;64.10;;;24.23;;
69260;SDS011;56378;52.404;20.816;2023-03-02T08:57:25;62.10;;;24.05;;
69260;SDS011;56378;52.404;20.816;2023-03-02T08:59:50;61.50;;;24.92;;
69260;SDS011;56378;52.404;20.816;2023-03-02T09:02:16;72.70;;;24.87;;
69260;SDS011;56378;52.404;20.816;2023-03-02T09:04:42;57.13;;;23.55;;
69260;SDS011;56378;52.404;20.816;2023-03-02T09:07:08;62.65;;;23.98;;
69260;SDS011;56378;52.404;20.816;2023-03-02T09:09:34;60.23;;;23.87;;
69260;SDS011;56378;52.404;20.816;2023-03-02T09:12:00;60.17;;;23.17;;
69260;SDS011;56378;52.404;20.816;2023-03-02T09:14:26;62.70;;;22.90;;
69260;SDS011;56378;52.404;20.816;2023-03-02T09:16:52;57.80;;;23.08;;
69260;SDS011;56378;52.404;20.816;2023-03-02T09:19:18;57.22;;;23.13;;
69260;SDS011;56378;52.404;20.816;2023-03-02T09:21:44;53.00;;;21.92;;
69260;SDS011;56378;52.404;20.816;2023-03-02T09:24:10;50.25;;;21.05;;
69260;SDS011;56378;52.404;20.816;2023-03-02T09:26:36;53.40;;;20.73;;
69260;SDS011;56378;52.404;20.816;2023-03-02T09:29:03;55.97;;;22.42;;
69260;SDS011;56378;52.404;20.816;2023-03-02T09:31:31;64.90;;;27.23;;
69260;SDS011;56378;52.404;20.816;2023-03-02T09:33:57;71.53;;;31.95;;
69260;SDS011;56378;52.404;20.816;2023-03-02T09:36:23;69.80;;;29.63;;
69260;SDS011;56378;52.404;20.816;2023-03-02T09:38:50;53.08;;;23.25;;
69260;SDS011;56378;52.404;20.816;2023-03-02T09:46:47;51.33;;;20.03;;
69260;SDS011;56378;52.404;20.816;2023-03-02T09:50:07;52.72;;;21.25;;
69260;SDS011;56378;52.404;20.816;2023-03-02T09:52:31;49.13;;;21.38;;
69260;SDS011;56378;52.404;20.816;2023-03-02T09:55:15;46.95;;;18.52;;
69260;SDS011;56378;52.404;20.816;2023-03-02T09:57:46;48.13;;;19.25;;
69260;SDS011;56378;52.404;20.816;2023-03-02T10:00:13;44.97;;;18.43;;
69260;SDS011;56378;52.404;20.816;2023-03-02T10:03:11;39.45;;;16.52;;
69260;SDS011;56378;52.404;20.816;2023-03-02T10:05:52;40.17;;;15.65;;
69260;SDS011;56378;52.404;20.816;2023-03-02T10:08:23;39.67;;;15.70;;
69260;SDS011;56378;52.404;20.816;2023-03-02T10:13:38;34.70;;;14.00;;
69260;SDS011;56378;52.404;20.816;2023-03-02T10:21:43;29.23;;;11.77;;
69260;SDS011;56378;52.404;20.816;2023-03-02T10:31:42;29.65;;;12.05;;
69260;SDS011;56378;52.404;20.816;2023-03-02T10:34:10;32.13;;;12.63;;
69260;SDS011;56378;52.404;20.816;2023-03-02T10:36:37;30.02;;;12.10;;
69260;SDS011;56378;52.404;20.816;2023-03-02T10:39:06;24.88;;;11.18;;
69260;SDS011;56378;52.404;20.816;2023-03-02T10:41:45;25.98;;;10.60;;
69260;SDS011;56378;52.404;20.816;2023-03-02T10:44:26;25.55;;;9.90;;
69260;SDS011;56378;52.404;20.816;2023-03-02T10:46:55;23.83;;;9.93;;
69260;SDS011;56378;52.404;20.816;2023-03-02T10:54:30;16.90;;;7.45;;
69260;SDS011;56378;52.404;20.816;2023-03-02T10:56:59;18.85;;;7.40;;
69260;SDS011;56378;52.404;20.816;2023-03-02T10:59:31;18.57;;;8.03;;
69260;SDS011;56378;52.404;20.816;2023-03-02T11:02:17;20.35;;;7.47;;
69260;SDS011;56378;52.404;20.816;2023-03-02T11:04:48;17.80;;;7.05;;
69260;SDS011;56378;52.404;20.816;2023-03-02T11:07:52;16.85;;;7.10;;
69260;SDS011;56378;52.404;20.816;2023-03-02T11:10:30;15.98;;;7.38;;
69260;SDS011;56378;52.404;20.816;2023-03-02T11:13:00;17.00;;;7.10;;
69260;SDS011;56378;52.404;20.816;2023-03-02T11:21:02;16.33;;;7.32;;
69260;SDS011;56378;52.404;20.816;2023-03-02T11:26:34;18.75;;;7.90;;
69260;SDS011;56378;52.404;20.816;2023-03-02T11:29:24;17.13;;;7.72;;
69260;SDS011;56378;52.404;20.816;2023-03-02T11:32:02;18.05;;;8.07;;
69260;SDS011;56378;52.404;20.816;2023-03-02T11:34:45;17.02;;;7.20;;
69260;SDS011;56378;52.404;20.816;2023-03-02T11:37:35;16.02;;;7.20;;
69260;SDS011;56378;52.404;20.816;2023-03-02T11:42:42;17.10;;;7.75;;
69260;SDS011;56378;52.404;20.816;2023-03-02T11:47:39;18.98;;;7.38;;
69260;SDS011;56378;52.404;20.816;2023-03-02T11:50:11;18.15;;;6.53;;
69260;SDS011;56378;52.404;20.816;2023-03-02T11:52:41;15.65;;;7.10;;
69260;SDS011;56378;52.404;20.816;2023-03-02T11:55:20;14.10;;;6.22;;
69260;SDS011;56378;52.404;20.816;2023-03-02T11:57:48;17.20;;;7.07;;
69260;SDS011;56378;52.404;20.816;2023-03-02T12:03:03;14.02;;;6.25;;
69260;SDS011;56378;52.404;20.816;2023-03-02T12:05:45;15.88;;;6.18;;
69260;SDS011;56378;52.404;20.816;2023-03-02T12:10:56;14.53;;;6.37;;
69260;SDS011;56378;52.404;20.816;2023-03-02T12:13:28;20.55;;;8.68;;
69260;SDS011;56378;52.404;20.816;2023-03-02T12:15:59;41.40;;;19.40;;
69260;SDS011;56378;52.404;20.816;2023-03-02T12:18:30;24.13;;;10.77;;
69260;SDS011;56378;52.404;20.816;2023-03-02T12:24:01;30.52;;;11.80;;
69260;SDS011;56378;52.404;20.816;2023-03-02T12:26:33;22.38;;;9.15;;
69260;SDS011;56378;52.404;20.816;2023-03-02T12:31:44;22.90;;;9.48;;
69260;SDS011;56378;52.404;20.816;2023-03-02T12:36:50;18.65;;;7.60;;
69260;SDS011;56378;52.404;20.816;2023-03-02T12:39:38;19.23;;;7.95;;
69260;SDS011;56378;52.404;20.816;2023-03-02T12:47:38;20.13;;;8.40;;
69260;SDS011;56378;52.404;20.816;2023-03-02T12:50:19;18.10;;;7.88;;
69260;SDS011;56378;52.404;20.816;2023-03-02T12:52:56;21.35;;;9.85;;
69260;SDS011;56378;52.404;20.816;2023-03-02T12:55:23;22.77;;;10.35;;
69260;SDS011;56378;52.404;20.816;2023-03-02T12:57:56;21.00;;;10.68;;
69260;SDS011;56378;52.404;20.816;2023-03-02T13:00:26;19.47;;;9.63;;
69260;SDS011;56378;52.404;20.816;2023-03-02T13:02:55;20.60;;;9.63;;
69260;SDS011;56378;52.404;20.816;2023-03-02T13:05:26;37.80;;;21.17;;
69260;SDS011;56378;52.404;20.816;2023-03-02T13:08:07;37.95;;;21.10;;
69260;SDS011;56378;52.404;20.816;2023-03-02T13:10:57;34.25;;;17.67;;
69260;SDS011;56378;52.404;20.816;2023-03-02T13:13:27;44.87;;;21.67;;
69260;SDS011;56378;52.404;20.816;2023-03-02T13:15:59;38.78;;;19.13;;
69260;SDS011;56378;52.404;20.816;2023-03-02T13:18:28;23.52;;;10.57;;
69260;SDS011;56378;52.404;20.816;2023-03-02T13:20:56;17.33;;;7.70;;
69260;SDS011;56378;52.404;20.816;2023-03-02T13:23:27;35.03;;;15.02;;
69260;SDS011;56378;52.404;20.816;2023-03-02T13:26:01;43.07;;;19.33;;
69260;SDS011;56378;52.404;20.816;2023-03-02T13:28:33;44.20;;;19.30;;
69260;SDS011;56378;52.404;20.816;2023-03-02T13:31:02;25.23;;;10.43;;
69260;SDS011;56378;52.404;20.816;2023-03-02T13:33:42;22.73;;;9.32;;
69260;SDS011;56378;52.404;20.816;2023-03-02T13:36:16;22.33;;;9.38;;
69260;SDS011;56378;52.404;20.816;2023-03-02T13:39:05;22.20;;;8.93;;
69260;SDS011;56378;52.404;20.816;2023-03-02T13:41:50;24.13;;;10.10;;
69260;SDS011;56378;52.404;20.816;2023-03-02T13:44:24;20.30;;;9.43;;
69260;SDS011;56378;52.404;20.816;2023-03-02T13:46:54;22.25;;;8.88;;
69260;SDS011;56378;52.404;20.816;2023-03-02T13:52:00;26.67;;;9.90;;
69260;SDS011;56378;52.404;20.816;2023-03-02T13:54:39;25.52;;;11.00;;
69260;SDS011;56378;52.404;20.816;2023-03-02T13:57:14;27.75;;;11.20;;
69260;SDS011;56378;52.404;20.816;2023-03-02T13:59:43;20.92;;;8.35;;
69260;SDS011;56378;52.404;20.816;2023-03-02T14:02:17;22.55;;;8.68;;
69260;SDS011;56378;52.404;20.816;2023-03-02T14:04:48;20.03;;;9.03;;
69260;SDS011;56378;52.404;20.816;2023-03-02T14:07:14;23.73;;;9.20;;
69260;SDS011;56378;52.404;20.816;2023-03-02T14:09:41;21.67;;;9.65;;
69260;SDS011;56378;52.404;20.816;2023-03-02T14:12:09;31.95;;;11.68;;
69260;SDS011;56378;52.404;20.816;2023-03-02T14:14:49;25.85;;;10.57;;
69260;SDS011;56378;52.404;20.816;2023-03-02T14:17:18;22.83;;;10.38;;
69260;SDS011;56378;52.404;20.816;2023-03-02T14:19:46;26.45;;;11.27;;
69260;SDS011;56378;52.404;20.816;2023-03-02T14:22:16;28.63;;;11.60;;
69260;SDS011;56378;52.404;20.816;2023-03-02T14:24:43;25.17;;;10.68;;
69260;SDS011;56378;52.404;20.816;2023-03-02T14:27:12;26.67;;;9.98;;
69260;SDS011;56378;52.404;20.816;2023-03-02T14:29:45;21.33;;;9.20;;
69260;SDS011;56378;52.404;20.816;2023-03-02T14:32:12;21.73;;;9.32;;
69260;SDS011;56378;52.404;20.816;2023-03-02T14:34:39;22.90;;;9.00;;
69260;SDS011;56378;52.404;20.816;2023-03-02T14:37:07;20.92;;;8.57;;
69260;SDS011;56378;52.404;20.816;2023-03-02T14:39:39;20.38;;;8.93;;
69260;SDS011;56378;52.404;20.816;2023-03-02T14:42:15;20.98;;;8.35;;
69260;SDS011;56378;52.404;20.816;2023-03-02T14:44:42;20.98;;;8.52;;
69260;SDS011;56378;52.404;20.816;2023-03-02T14:47:10;27.85;;;10.45;;
69260;SDS011;56378;52.404;20.816;2023-03-02T14:49:36;18.73;;;8.27;;
69260;SDS011;56378;52.404;20.816;2023-03-02T14:54:59;21.15;;;8.73;;
69260;SDS011;56378;52.404;20.816;2023-03-02T14:57:31;19.75;;;8.70;;
69260;SDS011;56378;52.404;20.816;2023-03-02T14:59:59;23.10;;;9.90;;
69260;SDS011;56378;52.404;20.816;2023-03-02T15:02:25;26.87;;;12.23;;
69260;SDS011;56378;52.404;20.816;2023-03-02T15:04:52;24.38;;;10.75;;
69260;SDS011;56378;52.404;20.816;2023-03-02T15:07:19;26.30;;;10.65;;
69260;SDS011;56378;52.404;20.816;2023-03-02T15:09:45;21.52;;;9.13;;
69260;SDS011;56378;52.404;20.816;2023-03-02T15:12:11;23.75;;;9.57;;
69260;SDS011;56378;52.404;20.816;2023-03-02T15:14:37;21.20;;;9.43;;
69260;SDS011;56378;52.404;20.816;2023-03-02T15:17:03;20.98;;;8.30;;
69260;SDS011;56378;52.404;20.816;2023-03-02T15:19:29;19.45;;;8.20;;
69260;SDS011;56378;52.404;20.816;2023-03-02T15:21:55;19.05;;;8.43;;
69260;SDS011;56378;52.404;20.816;2023-03-02T15:24:21;23.43;;;8.60;;
69260;SDS011;56378;52.404;20.816;2023-03-02T15:26:50;21.63;;;8.65;;
69260;SDS011;56378;52.404;20.816;2023-03-02T15:29:17;21.35;;;9.23;;
69260;SDS011;56378;52.404;20.816;2023-03-02T15:31:44;24.70;;;9.48;;
69260;SDS011;56378;52.404;20.816;2023-03-02T15:34:10;22.35;;;9.45;;
69260;SDS011;56378;52.404;20.816;2023-03-02T15:36:36;26.17;;;10.32;;
69260;SDS011;56378;52.404;20.816;2023-03-02T15:39:03;25.38;;;10.05;;